Aérodrome :
LOGIN :

S'inscrire | Disclaimer

   EN    FR    IT 

 










Légende :    VFR   VFR Marginal   IFR   IFR Intensif   IFR Très Intensif
Visi : 
Plafond : 
>= 8 km
>= 3000ft
5 à 8 km
1000 à 3000 ft
1500m à 5 km
500 à 1000 ft
800 à 1500m
200 à 500 ft
< 800m
< 200 ft
Symboles :   Orages  Brouillard  Fortes neiges  Fortes précipitations  Vent > 20 kt
SIGMETs :   Divers  Orages  Givrage  Turbulence  Onde Orograph.  Cendres Volcan.







- Altitude de l'aérodrome : 622 ft
- Code IATA : BRS
- Voir les cartes d'approche


EGGD - Bristol Int.

DERNIER METAR :
  • 170020Z AUTO 04008KT 9999 OVC021 12/09 Q1024

METARs EXPIRÉS :
  • 162350Z AUTO 05008KT 9999 BKN022 12/09 Q1024
  • 162320Z AUTO 04009KT 9999 BKN014 12/10 Q1024
  • 162250Z AUTO 04009KT 9999 BKN010 13/11 Q1024
  • 162220Z AUTO 04007KT 9999 FEW009 13/12 Q1024
  • 162150Z AUTO 05007KT 9999 FEW046 14/12 Q1024
  • 162120Z AUTO 05010KT 9999 FEW017 SCT030 OVC045 14/13 Q1024

TAF TAF EGGD
Valide du 17 à 00h jusqu'au 18 à 00h UTC


162303Z 1700/1724 04008KT 9999 SCT025
ATIS : +44 1275 473 666
Pas de NOTAMs connus pour ce terrain.



MET'MAP, la Météo Aéronautique d'un coup d'oeil ! - Copyright ORBIFLY Décembre 2007 - Disclaimer

ORBIFLY MET'MAP TEAM :

Programmation & Développement : Alexandra Zaïnal
Conception & Développement : Baudouin d'Aumeries
Co-Programmation & Développement : Marc-Olivier Méhu
Soutien technique & logistique : Manuel Goepfert

Contact : metmap@orbifly.com




SOURCES & CREDITS :

   NOAA